createdAt,value
2022-08-07T00:02:36.574Z,4.00
2022-08-07T00:05:29.589Z,3.37
2022-08-07T00:08:16.195Z,5.43
2022-08-07T00:11:02.546Z,4.27
2022-08-07T00:13:52.805Z,4.97
2022-08-07T00:16:41.711Z,5.47
2022-08-07T00:19:34.143Z,5.10
2022-08-07T00:22:36.799Z,3.67
2022-08-07T00:25:24.611Z,4.03
2022-08-07T00:28:12.918Z,3.70
2022-08-07T00:31:05.897Z,3.77
2022-08-07T00:33:52.673Z,3.47
2022-08-07T00:36:42.697Z,4.13
2022-08-07T00:39:31.500Z,4.17
2022-08-07T00:42:18.054Z,4.53
2022-08-07T00:45:16.257Z,4.77
2022-08-07T00:48:08.033Z,3.43
2022-08-07T00:50:56.475Z,3.67
2022-08-07T00:53:50.514Z,3.80
2022-08-07T00:56:42.506Z,4.50
2022-08-07T00:59:35.365Z,3.80
2022-08-07T01:02:28.252Z,4.50
2022-08-07T01:05:19.227Z,3.00
2022-08-07T01:08:06.328Z,4.10
2022-08-07T01:10:56.537Z,3.63
2022-08-07T01:13:55.816Z,4.03
2022-08-07T01:16:43.111Z,5.43
2022-08-07T01:19:32.208Z,3.10
2022-08-07T01:22:22.899Z,3.80
2022-08-07T01:25:40.245Z,5.07
2022-08-07T01:28:23.203Z,3.30
2022-08-07T01:31:10.631Z,3.77
2022-08-07T01:34:03.381Z,6.27
2022-08-07T01:36:52.840Z,4.60
2022-08-07T01:39:47.197Z,3.60
2022-08-07T01:42:37.586Z,4.50
2022-08-07T01:45:37.393Z,4.20
2022-08-07T01:48:30.706Z,4.70
2022-08-07T01:52:02.326Z,3.70
2022-08-07T01:54:36.429Z,3.53
2022-08-07T01:57:29.021Z,4.67
2022-08-07T02:00:17.925Z,4.60
2022-08-07T02:03:26.534Z,3.70
2022-08-07T02:06:31.250Z,4.83
2022-08-07T02:09:51.556Z,3.33
2022-08-07T02:12:32.364Z,3.77
2022-08-07T02:15:23.811Z,4.60
2022-08-07T02:18:14.430Z,3.23
2022-08-07T02:21:06.618Z,3.77
2022-08-07T02:23:53.659Z,5.60
2022-08-07T02:26:41.233Z,4.17
2022-08-07T02:29:32.432Z,4.10
2022-08-07T02:32:23.349Z,5.83
2022-08-07T02:35:20.326Z,4.47
2022-08-07T02:38:33.065Z,5.93
2022-08-07T02:41:21.699Z,3.50
2022-08-07T02:44:08.792Z,4.33
2022-08-07T02:46:59.204Z,4.93
2022-08-07T02:49:58.428Z,4.03
2022-08-07T02:52:54.674Z,3.67
2022-08-07T02:56:03.220Z,4.00
2022-08-07T02:58:54.187Z,5.13
2022-08-07T03:01:42.757Z,5.47
2022-08-07T03:04:36.296Z,4.40
2022-08-07T03:08:05.324Z,4.13
2022-08-07T03:10:29.428Z,4.73
2022-08-07T03:13:20.266Z,4.37
2022-08-07T03:16:06.962Z,4.50
2022-08-07T03:18:53.499Z,4.97
2022-08-07T03:21:50.574Z,3.73
2022-08-07T03:24:37.435Z,5.33
2022-08-07T03:27:30.775Z,5.33
2022-08-07T03:30:32.695Z,5.00
2022-08-07T03:33:21.479Z,5.13
2022-08-07T03:36:09.476Z,5.23
2022-08-07T03:39:05.322Z,4.33
2022-08-07T03:41:53.285Z,5.47
2022-08-07T03:44:40.212Z,5.83
2022-08-07T03:47:28.070Z,4.57
2022-08-07T03:50:17.393Z,4.80
2022-08-07T03:53:09.370Z,3.93
2022-08-07T03:56:04.154Z,3.67
2022-08-07T03:59:08.056Z,4.33
2022-08-07T04:01:57.179Z,6.20
2022-08-07T04:04:45.174Z,5.40
2022-08-07T04:07:36.136Z,5.90
2022-08-07T04:10:29.815Z,5.00
2022-08-07T04:13:19.367Z,4.30
2022-08-07T04:16:06.941Z,4.80
2022-08-07T04:19:01.862Z,6.50
2022-08-07T04:22:05.443Z,5.03
2022-08-07T04:24:58.047Z,4.47
2022-08-07T04:27:45.928Z,7.80
2022-08-07T04:30:43.380Z,4.83
2022-08-07T04:33:31.032Z,5.57
2022-08-07T04:36:26.005Z,4.63
2022-08-07T04:39:12.479Z,4.70
2022-08-07T04:41:59.012Z,5.00
2022-08-07T04:44:54.498Z,7.70
2022-08-07T04:48:10.355Z,4.90
2022-08-07T04:51:03.427Z,6.00
2022-08-07T04:54:05.879Z,5.50
2022-08-07T04:58:13.162Z,5.00
2022-08-07T05:00:18.920Z,4.57
2022-08-07T05:03:59.826Z,4.60
2022-08-07T05:06:43.256Z,6.07
2022-08-07T05:09:45.287Z,5.67
2022-08-07T05:12:46.261Z,4.60
2022-08-07T05:15:41.380Z,6.93
2022-08-07T05:18:32.144Z,6.30
2022-08-07T05:22:00.691Z,7.23
2022-08-07T05:24:30.720Z,6.10
2022-08-07T05:28:16.751Z,6.00
2022-08-07T05:30:35.960Z,11.67
2022-08-07T05:33:30.078Z,7.40
2022-08-07T05:36:22.501Z,8.50
2022-08-07T05:40:13.581Z,10.00
2022-08-07T05:42:33.662Z,7.00
2022-08-07T05:45:46.121Z,10.70
2022-08-07T05:48:34.069Z,8.00
2022-08-07T05:51:22.467Z,12.23
2022-08-07T05:54:30.215Z,9.70
2022-08-07T05:57:17.873Z,12.27
2022-08-07T06:00:08.612Z,8.67
2022-08-07T06:03:06.624Z,8.03
2022-08-07T06:05:56.376Z,8.70
2022-08-07T06:08:44.412Z,7.70
2022-08-07T06:11:33.875Z,7.60
2022-08-07T06:14:20.969Z,8.10
2022-08-07T06:17:10.035Z,8.80
2022-08-07T06:20:04.497Z,7.83
2022-08-07T06:23:02.429Z,9.17
2022-08-07T06:26:01.634Z,10.07
2022-08-07T06:28:50.066Z,7.90
2022-08-07T06:31:50.177Z,9.30
2022-08-07T06:34:36.951Z,8.97
2022-08-07T06:37:43.593Z,6.73
2022-08-07T06:40:38.365Z,7.23
2022-08-07T06:43:39.295Z,7.70
2022-08-07T06:46:31.511Z,8.33
2022-08-07T06:49:22.009Z,8.57
2022-08-07T06:52:10.208Z,9.40
2022-08-07T06:55:31.950Z,7.37
2022-08-07T06:58:10.170Z,7.07
2022-08-07T07:00:58.205Z,6.57
2022-08-07T07:03:49.987Z,5.60
2022-08-07T07:07:00.613Z,7.60
2022-08-07T07:09:48.743Z,9.17
2022-08-07T07:12:41.695Z,6.83
2022-08-07T07:15:43.120Z,5.73
2022-08-07T07:18:43.064Z,6.17
2022-08-07T07:22:04.035Z,4.23
2022-08-07T07:25:02.372Z,5.77
2022-08-07T07:27:58.573Z,5.40
2022-08-07T07:30:56.780Z,5.53
2022-08-07T07:33:49.047Z,5.23
2022-08-07T07:36:47.702Z,3.77
2022-08-07T07:39:52.253Z,4.33
2022-08-07T07:42:42.472Z,6.03
2022-08-07T07:46:36.561Z,8.10
2022-08-07T07:48:40.334Z,4.17
2022-08-07T07:51:33.107Z,3.10
2022-08-07T07:54:44.290Z,2.70
2022-08-07T07:57:53.353Z,4.97
2022-08-07T08:00:41.511Z,2.30
2022-08-07T08:04:09.436Z,2.80
2022-08-07T08:06:50.779Z,3.00
2022-08-07T08:09:52.396Z,5.67
2022-08-07T08:12:58.951Z,2.57
2022-08-07T08:15:58.846Z,4.77
2022-08-07T08:18:50.254Z,3.03
2022-08-07T08:22:03.551Z,2.43
2022-08-07T08:25:24.995Z,1.97
2022-08-07T08:28:23.983Z,2.17
2022-08-07T08:31:30.133Z,2.40
2022-08-07T08:34:37.729Z,1.77
2022-08-07T08:38:00.576Z,1.70
2022-08-07T08:40:38.667Z,9.13
2022-08-07T08:43:42.117Z,2.27
2022-08-07T08:46:47.263Z,1.80
2022-08-07T08:49:46.863Z,2.30
2022-08-07T08:52:54.331Z,1.43
2022-08-07T08:55:54.259Z,1.90
2022-08-07T08:58:54.460Z,1.40
2022-08-07T09:01:49.405Z,3.80
2022-08-07T09:04:45.444Z,3.53
2022-08-07T09:07:46.285Z,1.30
2022-08-07T09:10:48.046Z,1.47
2022-08-07T09:13:41.911Z,0.90
2022-08-07T09:16:38.336Z,2.37
2022-08-07T09:19:51.095Z,3.87
2022-08-07T09:24:33.848Z,2.50
2022-08-07T09:26:20.899Z,1.13
2022-08-07T09:30:02.141Z,1.00
2022-08-07T09:32:37.300Z,1.40
2022-08-07T09:36:04.386Z,1.40
2022-08-07T09:38:53.886Z,1.90
2022-08-07T09:41:58.962Z,2.33
2022-08-07T09:47:24.424Z,1.23
2022-08-07T09:48:50.040Z,2.17
2022-08-07T09:52:10.659Z,3.63
2022-08-07T09:55:28.743Z,1.20
2022-08-07T09:58:48.708Z,1.40
2022-08-07T10:02:06.104Z,1.37
2022-08-07T10:05:18.792Z,1.33
2022-08-07T10:08:44.070Z,2.00
2022-08-07T10:12:01.555Z,2.37
2022-08-07T10:15:08.342Z,1.47
2022-08-07T10:18:18.467Z,1.13
2022-08-07T10:22:14.756Z,1.63
2022-08-07T10:24:51.395Z,2.60
2022-08-07T10:27:53.029Z,1.37
2022-08-07T10:30:59.187Z,1.20
2022-08-07T10:34:05.994Z,4.27
2022-08-07T10:37:14.938Z,2.97
2022-08-07T10:40:08.927Z,6.47
2022-08-07T10:43:01.772Z,3.50
2022-08-07T10:45:58.218Z,1.90
2022-08-07T10:48:56.348Z,3.60
2022-08-07T10:52:02.352Z,1.47
2022-08-07T10:55:21.170Z,2.80
2022-08-07T10:58:36.435Z,1.30
2022-08-07T11:01:52.069Z,1.60
2022-08-07T11:05:00.112Z,1.17
2022-08-07T11:08:03.472Z,1.47
2022-08-07T11:10:59.820Z,1.83
2022-08-07T11:14:44.524Z,3.30
2022-08-07T11:17:07.252Z,1.73
2022-08-07T11:20:03.455Z,1.20
2022-08-07T11:22:54.759Z,1.53
2022-08-07T11:25:50.080Z,1.20
2022-08-07T11:28:42.757Z,2.77
2022-08-07T11:31:51.823Z,1.07
2022-08-07T11:34:46.002Z,2.27
2022-08-07T11:37:58.356Z,2.27
2022-08-07T11:40:59.720Z,1.40
2022-08-07T11:44:12.720Z,2.17
2022-08-07T11:47:09.892Z,1.90
2022-08-07T11:50:31.391Z,1.73
2022-08-07T11:53:27.295Z,2.23
2022-08-07T11:56:34.746Z,1.57
2022-08-07T12:00:11.341Z,1.57
2022-08-07T12:03:42.269Z,1.03
2022-08-07T12:06:55.342Z,1.30
2022-08-07T12:09:51.763Z,1.20
2022-08-07T12:12:43.545Z,2.05
2022-08-07T12:15:58.018Z,2.33
2022-08-07T12:18:47.918Z,2.17
2022-08-07T12:21:55.892Z,1.65
2022-08-07T12:26:21.687Z,3.28
2022-08-07T12:28:32.407Z,3.63
2022-08-07T12:31:52.984Z,1.30
2022-08-07T12:34:37.819Z,2.05
2022-08-07T12:37:28.562Z,1.13
2022-08-07T12:40:47.667Z,1.90
2022-08-07T12:44:01.966Z,2.25
2022-08-07T12:47:01.029Z,1.33
2022-08-07T12:49:58.837Z,1.20
2022-08-07T12:52:55.937Z,4.53
2022-08-07T12:56:02.762Z,1.50
2022-08-07T12:58:53.233Z,3.25
2022-08-07T13:01:56.998Z,1.48
2022-08-07T13:05:01.609Z,1.23
2022-08-07T13:08:28.626Z,1.17
2022-08-07T13:12:02.729Z,1.10
2022-08-07T13:14:55.276Z,1.20
2022-08-07T13:17:52.703Z,1.30
2022-08-07T13:20:51.100Z,1.05
2022-08-07T13:24:00.712Z,2.13
2022-08-07T13:26:58.451Z,0.95
2022-08-07T13:29:53.415Z,1.38
2022-08-07T13:32:45.702Z,1.02
2022-08-07T13:36:00.673Z,1.42
2022-08-07T13:38:56.758Z,1.10
2022-08-07T13:41:47.285Z,1.25
2022-08-07T13:44:39.438Z,1.98
2022-08-07T13:48:07.809Z,1.40
2022-08-07T13:50:45.171Z,1.33
2022-08-07T13:54:00.977Z,0.95
2022-08-07T13:56:51.679Z,1.20
2022-08-07T13:59:48.279Z,4.00
2022-08-07T14:02:51.082Z,1.10
2022-08-07T14:05:41.245Z,1.80
2022-08-07T14:08:29.653Z,1.10
2022-08-07T14:11:17.696Z,1.02
2022-08-07T14:14:08.579Z,2.13
2022-08-07T14:16:59.886Z,1.27
2022-08-07T14:20:43.114Z,1.77
2022-08-07T14:23:17.971Z,1.55
2022-08-07T14:26:29.833Z,1.48
2022-08-07T14:30:07.162Z,2.35
2022-08-07T14:32:29.847Z,1.17
2022-08-07T14:35:44.898Z,1.33
2022-08-07T14:38:33.472Z,1.77
2022-08-07T14:41:34.137Z,1.38
2022-08-07T14:44:34.388Z,1.10
2022-08-07T14:47:23.123Z,1.05
2022-08-07T14:50:18.970Z,1.05
2022-08-07T14:53:08.328Z,1.33
2022-08-07T14:56:02.001Z,3.17
2022-08-07T14:58:54.327Z,1.13
2022-08-07T15:01:51.507Z,1.20
2022-08-07T15:04:41.396Z,1.30
2022-08-07T15:10:59.117Z,1.50
2022-08-07T15:13:54.249Z,1.15
2022-08-07T15:16:55.042Z,1.65
2022-08-07T15:20:33.047Z,3.30
2022-08-07T15:23:01.201Z,1.10
2022-08-07T15:26:09.989Z,1.38
2022-08-07T15:32:15.346Z,1.58
2022-08-07T15:36:01.407Z,1.27
2022-08-07T15:38:58.830Z,1.35
2022-08-07T15:42:45.877Z,3.25
2022-08-07T15:45:09.416Z,2.03
2022-08-07T15:48:01.016Z,1.40
2022-08-07T15:51:02.101Z,3.63
2022-08-07T15:53:59.850Z,1.70
2022-08-07T15:56:49.012Z,1.58
2022-08-07T15:59:44.108Z,2.45
2022-08-07T16:02:34.810Z,1.50
2022-08-07T16:05:31.143Z,5.22
2022-08-07T16:08:30.425Z,1.25
2022-08-07T16:11:45.920Z,1.33
2022-08-07T16:14:48.647Z,1.80
2022-08-07T16:18:02.918Z,1.50
2022-08-07T16:21:44.021Z,1.55
2022-08-07T16:24:33.955Z,2.40
2022-08-07T16:27:39.882Z,1.80
2022-08-07T16:30:32.604Z,4.45
2022-08-07T16:34:07.276Z,4.30
2022-08-07T16:37:02.530Z,2.58
2022-08-07T16:40:01.799Z,3.20
2022-08-07T16:43:04.481Z,3.20
2022-08-07T16:47:06.675Z,1.75
2022-08-07T16:50:27.448Z,2.72
2022-08-07T16:54:01.508Z,1.70
2022-08-07T16:56:53.459Z,2.30
2022-08-07T16:59:50.958Z,2.50
2022-08-07T17:02:53.517Z,2.30
2022-08-07T17:06:29.789Z,2.07
2022-08-07T17:10:08.114Z,1.70
2022-08-07T17:12:45.461Z,2.00
2022-08-07T17:15:44.251Z,3.93
2022-08-07T17:18:41.527Z,3.37
2022-08-07T17:21:50.588Z,2.07
2022-08-07T17:24:59.838Z,2.90
2022-08-07T17:27:58.032Z,2.37
2022-08-07T17:30:58.404Z,3.47
2022-08-07T17:34:15.188Z,3.60
2022-08-07T17:37:09.617Z,3.20
2022-08-07T17:40:19.988Z,1.90
2022-08-07T17:44:01.480Z,3.17
2022-08-07T17:46:40.860Z,2.63
2022-08-07T17:49:39.381Z,2.80
2022-08-07T17:52:39.694Z,1.87
2022-08-07T17:56:01.027Z,1.70
2022-08-07T17:58:46.292Z,3.00
2022-08-07T18:01:43.896Z,2.57
2022-08-07T18:04:43.069Z,1.97
2022-08-07T18:07:43.645Z,1.93
2022-08-07T18:10:38.601Z,2.07
2022-08-07T18:13:48.301Z,1.67
2022-08-07T18:16:57.689Z,2.37
2022-08-07T18:21:12.640Z,2.67
2022-08-07T18:23:05.930Z,2.70
2022-08-07T18:26:16.461Z,3.23
2022-08-07T18:30:04.227Z,3.13
2022-08-07T18:32:31.353Z,1.70
2022-08-07T18:35:23.400Z,1.87
2022-08-07T18:38:55.561Z,1.80
2022-08-07T18:41:46.317Z,2.23
2022-08-07T18:45:40.256Z,2.13
2022-08-07T18:48:00.840Z,1.70
2022-08-07T18:51:06.671Z,3.27
2022-08-07T18:54:27.791Z,2.10
2022-08-07T18:57:30.830Z,2.27
2022-08-07T19:00:34.625Z,3.17
2022-08-07T19:03:36.089Z,1.93
2022-08-07T19:06:33.715Z,1.73
2022-08-07T19:09:56.148Z,2.00
2022-08-07T19:13:11.536Z,2.63
2022-08-07T19:17:04.615Z,1.87
2022-08-07T19:19:27.960Z,5.50
2022-08-07T19:22:30.233Z,2.70
2022-08-07T19:26:22.644Z,2.10
2022-08-07T19:28:58.102Z,2.00
2022-08-07T19:32:06.819Z,1.97
2022-08-07T19:34:51.936Z,2.80
2022-08-07T19:37:57.116Z,2.70
2022-08-07T19:40:49.411Z,5.60
2022-08-07T19:43:44.138Z,3.03
2022-08-07T19:46:40.577Z,3.27
2022-08-07T19:49:58.293Z,2.17
2022-08-07T19:52:58.681Z,2.40
2022-08-07T19:55:57.739Z,2.23
2022-08-07T19:58:53.086Z,4.37
2022-08-07T20:01:57.116Z,2.03
2022-08-07T20:04:49.423Z,3.63
2022-08-07T20:07:47.270Z,3.73
2022-08-07T20:10:54.353Z,2.67
2022-08-07T20:13:46.463Z,3.57
2022-08-07T20:16:36.787Z,3.20
2022-08-07T20:19:25.147Z,2.50
2022-08-07T20:22:18.222Z,2.30
2022-08-07T20:25:19.666Z,3.47
2022-08-07T20:28:11.741Z,3.27
2022-08-07T20:31:01.987Z,2.93
2022-08-07T20:33:57.433Z,3.10
2022-08-07T20:36:51.751Z,3.63
2022-08-07T20:40:04.113Z,2.53
2022-08-07T20:42:56.176Z,2.77
2022-08-07T20:46:25.833Z,3.83
2022-08-07T20:49:54.450Z,2.60
2022-08-07T20:52:14.286Z,2.70
2022-08-07T20:55:05.379Z,4.40
2022-08-07T20:58:02.671Z,2.67
2022-08-07T21:00:57.703Z,3.10
2022-08-07T21:04:13.054Z,2.93
2022-08-07T21:06:57.701Z,3.47
2022-08-07T21:09:52.920Z,3.60
2022-08-07T21:12:47.614Z,2.93
2022-08-07T21:15:47.904Z,4.07
2022-08-07T21:18:50.416Z,3.70
2022-08-07T21:21:57.176Z,3.47
2022-08-07T21:24:56.395Z,2.67
2022-08-07T21:27:53.772Z,3.17
2022-08-07T21:30:57.624Z,3.00
2022-08-07T21:33:53.167Z,3.43
2022-08-07T21:36:50.353Z,4.53
2022-08-07T21:39:51.854Z,3.73
2022-08-07T21:42:50.992Z,2.77
2022-08-07T21:46:08.017Z,4.77
2022-08-07T21:49:00.314Z,2.97
2022-08-07T21:52:02.453Z,3.97
2022-08-07T21:54:56.764Z,3.30
2022-08-07T21:57:59.998Z,2.50
2022-08-07T22:00:54.393Z,3.03
2022-08-07T22:03:45.254Z,4.63
2022-08-07T22:06:37.963Z,5.63
2022-08-07T22:09:38.112Z,3.40
2022-08-07T22:12:45.731Z,2.93
2022-08-07T22:16:41.927Z,2.93
2022-08-07T22:18:50.454Z,3.27
2022-08-07T22:22:04.780Z,4.57
2022-08-07T22:25:10.928Z,3.70
2022-08-07T22:28:31.499Z,3.77
2022-08-07T22:31:55.933Z,3.30
2022-08-07T22:34:37.396Z,3.23
2022-08-07T22:38:03.454Z,3.50
2022-08-07T22:40:57.708Z,3.97
2022-08-07T22:43:51.310Z,3.80
2022-08-07T22:47:04.070Z,3.83
2022-08-07T22:50:20.456Z,3.53
2022-08-07T22:54:07.873Z,4.03
2022-08-07T22:56:48.295Z,3.67
2022-08-07T22:59:51.909Z,7.00
2022-08-07T23:03:03.577Z,3.70
2022-08-07T23:06:15.507Z,3.73
2022-08-07T23:10:03.423Z,4.20
2022-08-07T23:12:48.297Z,3.30
2022-08-07T23:16:06.133Z,2.97
2022-08-07T23:19:16.326Z,4.33
2022-08-07T23:22:20.734Z,4.73
2022-08-07T23:25:28.563Z,3.50
2022-08-07T23:28:29.397Z,5.50
2022-08-07T23:32:48.586Z,5.63
2022-08-07T23:34:48.242Z,3.33
2022-08-07T23:38:01.366Z,3.33
2022-08-07T23:40:57.530Z,4.00
2022-08-07T23:44:12.253Z,4.77
2022-08-07T23:47:42.182Z,4.83
2022-08-07T23:50:36.938Z,4.50
2022-08-07T23:53:49.333Z,7.83
2022-08-07T23:56:54.187Z,5.73
